createdAt,value
2022-09-14T00:00:26.152Z,99212.25
2022-09-14T00:02:28.247Z,99218.56
2022-09-14T00:04:30.217Z,99216.50
2022-09-14T00:06:32.513Z,99217.34
2022-09-14T00:08:35.530Z,99214.75
2022-09-14T00:10:43.722Z,99209.53
2022-09-14T00:12:46.141Z,99209.31
2022-09-14T00:14:48.477Z,99212.91
2022-09-14T00:16:52.146Z,99214.53
2022-09-14T00:18:57.462Z,99217.88
2022-09-14T00:21:01.198Z,99224.41
2022-09-14T00:23:03.933Z,99216.50
2022-09-14T00:25:06.870Z,99210.91
2022-09-14T00:27:08.753Z,99208.09
2022-09-14T00:29:11.303Z,99205.38
2022-09-14T00:31:14.009Z,99212.66
2022-09-14T00:33:16.508Z,99213.25
2022-09-14T00:35:21.587Z,99216.94
2022-09-14T00:37:23.574Z,99205.84
2022-09-14T00:39:26.327Z,99214.03
2022-09-14T00:41:32.247Z,99214.75
2022-09-14T00:44:11.683Z,99210.31
2022-09-14T00:46:13.976Z,99219.47
2022-09-14T00:48:16.422Z,99217.47
2022-09-14T00:50:18.877Z,99211.31
2022-09-14T00:52:26.127Z,99211.31
2022-09-14T00:54:28.273Z,99206.72
2022-09-14T00:56:31.027Z,99215.13
2022-09-14T00:58:33.166Z,99215.13
2022-09-14T01:00:35.402Z,99217.72
2022-09-14T01:02:38.817Z,99213.38
2022-09-14T01:04:44.219Z,99208.72
2022-09-14T01:07:07.083Z,99216.47
2022-09-14T01:09:30.317Z,99213.75
2022-09-14T01:11:56.437Z,99222.56
2022-09-14T01:14:08.191Z,99224.44
2022-09-14T01:16:22.114Z,99234.56
2022-09-14T01:18:45.553Z,99229.47
2022-09-14T01:21:00.787Z,99237.72
2022-09-14T01:23:22.407Z,99229.81
2022-09-14T01:25:33.053Z,99224.09
2022-09-14T01:27:41.901Z,99221.25
2022-09-14T01:30:05.061Z,99226.09
2022-09-14T01:32:21.858Z,99224.63
2022-09-14T01:34:31.924Z,99229.28
2022-09-14T01:36:37.808Z,99226.16
2022-09-14T01:38:47.411Z,99213.56
2022-09-14T01:40:51.358Z,99221.53
2022-09-14T01:43:06.243Z,99228.28
2022-09-14T01:45:11.944Z,99225.81
2022-09-14T01:47:23.418Z,99214.41
2022-09-14T01:49:32.365Z,99222.22
2022-09-14T01:51:48.263Z,99219.91
2022-09-14T01:53:55.891Z,99219.47
2022-09-14T01:56:09.275Z,99221.53
2022-09-14T01:58:18.777Z,99209.69
2022-09-14T02:00:22.544Z,99213.28
2022-09-14T02:02:32.594Z,99205.44
2022-09-14T02:05:07.484Z,99205.34
2022-09-14T02:07:10.139Z,99198.09
2022-09-14T02:09:16.805Z,99203.44
2022-09-14T02:11:19.335Z,99198.25
2022-09-14T02:13:21.662Z,99202.41
2022-09-14T02:15:26.446Z,99195.09
2022-09-14T02:17:29.618Z,99197.28
2022-09-14T02:19:37.909Z,99188.16
2022-09-14T02:21:41.112Z,99187.00
2022-09-14T02:23:43.663Z,99186.66
2022-09-14T02:25:49.404Z,99176.75
2022-09-14T02:27:53.111Z,99184.03
2022-09-14T02:29:55.535Z,99183.47
2022-09-14T02:32:21.450Z,99174.44
2022-09-14T02:34:32.720Z,99167.91
2022-09-14T02:37:13.800Z,99158.13
2022-09-14T02:39:40.345Z,99156.53
2022-09-14T02:42:16.426Z,99160.44
2022-09-14T02:44:46.020Z,99160.56
2022-09-14T02:47:28.102Z,99157.00
2022-09-14T02:49:36.421Z,99161.34
2022-09-14T02:52:08.037Z,99159.06
2022-09-14T02:54:24.727Z,99156.53
2022-09-14T02:56:28.633Z,99148.13
2022-09-14T02:58:43.085Z,99144.50
2022-09-14T03:00:50.903Z,99143.69
2022-09-14T03:02:53.372Z,99149.75
2022-09-14T03:04:56.591Z,99150.09
2022-09-14T03:06:59.338Z,99150.22
2022-09-14T03:09:01.278Z,99150.56
2022-09-14T03:11:03.323Z,99149.03
2022-09-14T03:13:05.269Z,99144.50
2022-09-14T03:15:07.988Z,99140.88
2022-09-14T03:17:10.144Z,99135.97
2022-09-14T03:19:12.505Z,99141.31
2022-09-14T03:21:16.706Z,99128.81
2022-09-14T03:23:19.135Z,99130.69
2022-09-14T03:25:23.150Z,99123.72
2022-09-14T03:27:25.275Z,99124.19
2022-09-14T03:29:27.230Z,99122.97
2022-09-14T03:31:29.490Z,99124.19
2022-09-14T03:33:31.848Z,99121.72
2022-09-14T03:35:34.305Z,99120.63
2022-09-14T03:37:40.396Z,99131.25
2022-09-14T03:39:43.721Z,99122.97
2022-09-14T03:41:45.729Z,99131.88
2022-09-14T03:43:48.365Z,99131.03
2022-09-14T03:45:50.610Z,99138.06
2022-09-14T03:47:52.756Z,99135.97
2022-09-14T03:49:54.872Z,99143.78
2022-09-14T03:51:59.782Z,99151.84
2022-09-14T03:54:02.468Z,99150.22
2022-09-14T03:56:15.381Z,99140.31
2022-09-14T03:58:17.572Z,99149.88
2022-09-14T04:00:19.858Z,99144.56
2022-09-14T04:02:21.930Z,99149.66
2022-09-14T04:04:23.961Z,99147.56
2022-09-14T04:06:26.528Z,99144.84
2022-09-14T04:08:29.023Z,99148.03
2022-09-14T04:10:31.416Z,99138.00
2022-09-14T04:12:37.501Z,99139.75
2022-09-14T04:14:43.117Z,99143.97
2022-09-14T04:16:45.472Z,99129.88
2022-09-14T04:18:48.296Z,99136.16
2022-09-14T04:21:07.195Z,99138.00
2022-09-14T04:23:12.711Z,99140.13
2022-09-14T04:25:14.868Z,99140.88
2022-09-14T04:27:17.383Z,99135.13
2022-09-14T04:29:22.867Z,99131.19
2022-09-14T04:31:26.239Z,99129.06
2022-09-14T04:33:33.998Z,99133.22
2022-09-14T04:35:39.174Z,99143.47
2022-09-14T04:37:41.614Z,99135.06
2022-09-14T04:39:44.034Z,99137.22
2022-09-14T04:41:46.642Z,99138.69
2022-09-14T04:43:50.904Z,99142.41
2022-09-14T04:45:53.610Z,99147.28
2022-09-14T04:47:55.977Z,99143.78
2022-09-14T04:49:58.364Z,99142.69
2022-09-14T04:52:00.531Z,99139.75
2022-09-14T04:54:04.460Z,99146.94
2022-09-14T04:56:08.755Z,99145.84
2022-09-14T04:58:11.276Z,99139.53
2022-09-14T05:00:14.136Z,99138.13
2022-09-14T05:02:16.610Z,99133.78
2022-09-14T05:04:18.924Z,99130.38
2022-09-14T05:06:24.765Z,99126.81
2022-09-14T05:08:27.154Z,99129.97
2022-09-14T05:10:29.853Z,99133.44
2022-09-14T05:12:32.240Z,99132.09
2022-09-14T05:14:34.525Z,99130.41
2022-09-14T05:16:38.713Z,99128.69
2022-09-14T05:18:41.326Z,99126.50
2022-09-14T05:20:43.941Z,99130.34
2022-09-14T05:22:50.463Z,99129.75
2022-09-14T05:24:52.678Z,99129.78
2022-09-14T05:26:59.495Z,99130.16
2022-09-14T05:29:03.259Z,99128.31
2022-09-14T05:31:11.279Z,99133.38
2022-09-14T05:33:13.485Z,99131.91
2022-09-14T05:35:15.736Z,99133.66
2022-09-14T05:37:18.160Z,99132.91
2022-09-14T05:39:23.398Z,99131.28
2022-09-14T05:41:25.580Z,99125.09
2022-09-14T05:43:29.102Z,99127.94
2022-09-14T05:45:31.564Z,99126.06
2022-09-14T05:47:38.406Z,99117.38
2022-09-14T05:49:41.284Z,99117.84
2022-09-14T05:51:43.364Z,99121.91
2022-09-14T05:53:53.899Z,99116.22
2022-09-14T05:56:06.691Z,99111.72
2022-09-14T05:58:08.839Z,99115.66
2022-09-14T06:00:12.047Z,99112.69
2022-09-14T06:02:19.374Z,99108.28
2022-09-14T06:04:22.100Z,99102.91
2022-09-14T06:06:25.040Z,99109.19
2022-09-14T06:08:27.277Z,99107.41
2022-09-14T06:10:29.418Z,99109.00
2022-09-14T06:12:32.139Z,99110.09
2022-09-14T06:14:34.465Z,99112.53
2022-09-14T06:16:36.554Z,99116.19
2022-09-14T06:18:39.798Z,99108.88
2022-09-14T06:20:50.858Z,99109.47
2022-09-14T06:22:53.034Z,99107.13
2022-09-14T06:24:55.014Z,99112.94
2022-09-14T06:26:56.853Z,99111.25
2022-09-14T06:28:59.231Z,99105.59
2022-09-14T06:31:04.678Z,99103.31
2022-09-14T06:33:07.160Z,99101.13
2022-09-14T06:35:12.437Z,99103.06
2022-09-14T06:37:15.527Z,99099.00
2022-09-14T06:39:18.026Z,99100.75
2022-09-14T06:41:24.103Z,99091.25
2022-09-14T06:43:28.982Z,99094.31
2022-09-14T06:45:33.005Z,99098.94
2022-09-14T06:47:35.248Z,99090.59
2022-09-14T06:49:37.359Z,99104.72
2022-09-14T06:51:41.900Z,99105.31
2022-09-14T06:53:45.628Z,99099.69
2022-09-14T06:55:48.093Z,99100.13
2022-09-14T06:57:50.232Z,99103.72
2022-09-14T06:59:52.995Z,99101.88
2022-09-14T07:01:56.612Z,99103.72
2022-09-14T07:04:03.773Z,99096.66
2022-09-14T07:06:11.694Z,99108.03
2022-09-14T07:08:13.835Z,99104.28
2022-09-14T07:10:16.099Z,99100.56
2022-09-14T07:12:18.363Z,99105.44
2022-09-14T07:14:20.941Z,99099.53
2022-09-14T07:16:24.159Z,99100.81
2022-09-14T07:18:33.072Z,99101.50
2022-09-14T07:20:36.567Z,99108.00
2022-09-14T07:22:38.687Z,99112.19
2022-09-14T07:24:41.300Z,99119.22
2022-09-14T07:26:43.701Z,99121.47
2022-09-14T07:28:50.689Z,99120.25
2022-09-14T07:30:55.869Z,99125.72
2022-09-14T07:33:00.601Z,99124.38
2022-09-14T07:35:02.575Z,99120.94
2022-09-14T07:37:04.338Z,99111.78
2022-09-14T07:39:08.205Z,99120.31
2022-09-14T07:41:09.915Z,99118.03
2022-09-14T07:43:12.441Z,99119.91
2022-09-14T07:45:14.164Z,99123.81
2022-09-14T07:47:16.050Z,99133.06
2022-09-14T07:49:17.889Z,99120.94
2022-09-14T07:51:19.792Z,99134.03
2022-09-14T07:53:21.874Z,99122.63
2022-09-14T07:55:23.689Z,99122.31
2022-09-14T07:57:45.556Z,99113.06
2022-09-14T07:59:47.317Z,99111.88
2022-09-14T08:01:49.720Z,99105.75
2022-09-14T08:03:51.934Z,99107.03
2022-09-14T08:06:09.057Z,99112.97
2022-09-14T08:08:10.765Z,99097.25
2022-09-14T08:10:13.001Z,99100.97
2022-09-14T08:12:16.208Z,99094.97
2022-09-14T08:14:17.993Z,99106.94
2022-09-14T08:16:20.929Z,99123.69
2022-09-14T08:18:22.956Z,99111.31
2022-09-14T08:20:25.385Z,99110.59
2022-09-14T08:22:28.118Z,99103.38
2022-09-14T08:24:30.818Z,99102.38
2022-09-14T08:26:36.504Z,99100.50
2022-09-14T08:28:38.936Z,99099.91
2022-09-14T08:30:41.436Z,99092.16
2022-09-14T08:32:43.226Z,99101.38
2022-09-14T08:34:45.040Z,99096.78
2022-09-14T08:36:47.927Z,99092.16
2022-09-14T08:38:50.261Z,99103.13
2022-09-14T08:40:52.809Z,99091.13
2022-09-14T08:42:58.818Z,99093.00
2022-09-14T08:45:09.017Z,99090.81
2022-09-14T08:47:16.331Z,99094.88
2022-09-14T08:49:44.031Z,99101.22
2022-09-14T08:51:46.089Z,99097.69
2022-09-14T08:53:50.480Z,99111.81
2022-09-14T08:56:06.414Z,99112.53
2022-09-14T08:58:37.906Z,99112.81
2022-09-14T09:01:03.228Z,99119.34
2022-09-14T09:03:07.989Z,99118.31
2022-09-14T09:05:43.518Z,99105.22
2022-09-14T09:08:04.134Z,99099.59
2022-09-14T09:10:06.892Z,99096.84
2022-09-14T09:12:14.238Z,99092.94
2022-09-14T09:14:24.322Z,99092.75
2022-09-14T09:16:28.553Z,99097.94
2022-09-14T09:18:53.633Z,99094.63
2022-09-14T09:21:02.856Z,99086.56
2022-09-14T09:23:17.397Z,99094.25
2022-09-14T09:25:23.387Z,99098.88
2022-09-14T09:27:27.805Z,99095.28
2022-09-14T09:29:29.543Z,99094.56
2022-09-14T09:31:51.815Z,99092.28
2022-09-14T09:34:15.290Z,99091.69
2022-09-14T09:36:18.459Z,99083.91
2022-09-14T09:38:25.016Z,99084.56
2022-09-14T09:40:37.218Z,99092.56
2022-09-14T09:43:09.657Z,99081.84
2022-09-14T09:45:11.572Z,99074.31
2022-09-14T09:47:13.907Z,99064.94
2022-09-14T09:49:24.160Z,99073.16
2022-09-14T09:51:31.191Z,99063.03
2022-09-14T09:53:34.858Z,99071.44
2022-09-14T09:55:39.986Z,99066.41
2022-09-14T09:57:41.983Z,99058.03
2022-09-14T09:59:46.630Z,99055.69
2022-09-14T10:01:48.666Z,99053.63
2022-09-14T10:04:01.221Z,99062.19
2022-09-14T10:06:10.340Z,99058.13
2022-09-14T10:08:15.447Z,99051.47
2022-09-14T10:10:20.082Z,99054.03
2022-09-14T10:12:25.070Z,99062.44
2022-09-14T10:14:34.027Z,99056.63
2022-09-14T10:16:40.760Z,99051.00
2022-09-14T10:18:51.560Z,99053.09
2022-09-14T10:20:53.932Z,99057.97
2022-09-14T10:22:55.872Z,99053.03
2022-09-14T10:25:02.034Z,99052.19
2022-09-14T10:27:38.045Z,99052.19
2022-09-14T10:29:42.870Z,99050.28
2022-09-14T10:31:49.241Z,99049.13
2022-09-14T10:33:56.726Z,99049.84
2022-09-14T10:36:13.424Z,99051.88
2022-09-14T10:38:20.823Z,99040.88
2022-09-14T10:40:46.496Z,99052.56
2022-09-14T10:43:04.226Z,99040.41
2022-09-14T10:45:22.934Z,99032.72
2022-09-14T10:47:55.849Z,99038.22
2022-09-14T10:50:25.346Z,99024.09
2022-09-14T10:52:33.145Z,99027.22
2022-09-14T10:54:47.482Z,99029.13
2022-09-14T10:57:09.822Z,99035.94
2022-09-14T10:59:31.918Z,99023.97
2022-09-14T11:01:49.704Z,99017.75
2022-09-14T11:04:00.956Z,99022.06
2022-09-14T11:06:06.067Z,99019.16
2022-09-14T11:08:39.036Z,99019.31
2022-09-14T11:11:14.974Z,99018.16
2022-09-14T11:13:33.783Z,99029.84
2022-09-14T11:15:41.941Z,99029.84
2022-09-14T11:18:08.818Z,99024.63
2022-09-14T11:20:26.839Z,99018.28
2022-09-14T11:22:46.808Z,99021.69
2022-09-14T11:25:00.056Z,99015.34
2022-09-14T11:27:29.932Z,99025.13
2022-09-14T11:29:39.172Z,99024.25
2022-09-14T11:32:19.280Z,99031.81
2022-09-14T11:34:22.405Z,99026.75
2022-09-14T11:36:37.369Z,99021.28
2022-09-14T11:38:53.203Z,99017.97
2022-09-14T11:41:28.174Z,99013.13
2022-09-14T11:43:52.369Z,99025.81
2022-09-14T11:46:16.309Z,99029.97
2022-09-14T11:48:44.499Z,99017.97
2022-09-14T11:50:51.575Z,99014.22
2022-09-14T11:53:03.755Z,99011.94
2022-09-14T11:55:12.294Z,99016.00
2022-09-14T11:57:24.459Z,99010.91
2022-09-14T11:59:41.527Z,99018.75
2022-09-14T12:01:43.704Z,99010.75
2022-09-14T12:04:11.560Z,99009.84
2022-09-14T12:06:37.616Z,99011.22
2022-09-14T12:08:40.555Z,99009.19
2022-09-14T12:11:01.409Z,99012.72
2022-09-14T12:13:06.877Z,99007.63
2022-09-14T12:15:23.370Z,99000.50
2022-09-14T12:17:40.186Z,99007.09
2022-09-14T12:19:45.396Z,99008.50
2022-09-14T12:21:47.800Z,99002.00
2022-09-14T12:23:53.817Z,98993.78
2022-09-14T12:26:10.954Z,98993.78
2022-09-14T12:28:38.067Z,98992.34
2022-09-14T12:30:41.110Z,98996.50
2022-09-14T12:32:46.947Z,98996.91
2022-09-14T12:35:35.170Z,99003.31
2022-09-14T12:37:37.371Z,98992.50
2022-09-14T12:39:59.654Z,98990.78
2022-09-14T12:42:32.514Z,98983.25
2022-09-14T12:44:41.656Z,98990.47
2022-09-14T12:46:46.983Z,98989.94
2022-09-14T12:48:49.475Z,98992.50
2022-09-14T12:50:54.873Z,98988.03
2022-09-14T12:53:07.621Z,98979.81
2022-09-14T12:55:52.916Z,98980.19
2022-09-14T12:58:13.158Z,98969.44
2022-09-14T13:00:20.123Z,98958.34
2022-09-14T13:02:32.089Z,98955.41
2022-09-14T13:04:38.238Z,98961.09
2022-09-14T13:06:45.069Z,98955.56
2022-09-14T13:08:51.849Z,98955.06
2022-09-14T13:10:54.050Z,98949.59
2022-09-14T13:12:56.894Z,98943.06
2022-09-14T13:15:02.828Z,98937.75
2022-09-14T13:17:05.772Z,98936.72
2022-09-14T13:19:25.935Z,98933.53
2022-09-14T13:21:28.164Z,98934.84
2022-09-14T13:23:37.988Z,98930.69
2022-09-14T13:25:40.559Z,98922.94
2022-09-14T13:27:50.254Z,98919.44
2022-09-14T13:30:25.036Z,98914.22
2022-09-14T13:32:27.993Z,98910.47
2022-09-14T13:34:34.292Z,98904.81
2022-09-14T13:36:42.640Z,98908.09
2022-09-14T13:38:45.063Z,98902.66
2022-09-14T13:40:50.059Z,98905.63
2022-09-14T13:42:52.353Z,98909.94
2022-09-14T13:44:54.851Z,98897.94
2022-09-14T13:47:02.131Z,98894.69
2022-09-14T13:49:09.535Z,98895.13
2022-09-14T13:51:14.736Z,98887.84
2022-09-14T13:53:36.340Z,98878.03
2022-09-14T13:55:38.285Z,98877.16
2022-09-14T13:57:40.526Z,98871.72
2022-09-14T14:00:04.388Z,98867.41
2022-09-14T14:02:13.957Z,98868.75
2022-09-14T14:04:37.927Z,98857.81
2022-09-14T14:06:41.955Z,98849.28
2022-09-14T14:08:44.358Z,98850.75
2022-09-14T14:10:50.198Z,98842.16
2022-09-14T14:12:52.436Z,98838.59
2022-09-14T14:14:58.975Z,98834.50
2022-09-14T14:17:13.456Z,98839.81
2022-09-14T14:19:29.985Z,98839.66
2022-09-14T14:21:33.877Z,98836.06
2022-09-14T14:23:46.899Z,98827.94
2022-09-14T14:26:09.157Z,98826.59
2022-09-14T14:28:26.302Z,98820.41
2022-09-14T14:30:30.456Z,98825.19
2022-09-14T14:32:32.640Z,98817.31
2022-09-14T14:34:34.894Z,98819.22
2022-09-14T14:36:37.350Z,98823.84
2022-09-14T14:38:40.988Z,98825.91
2022-09-14T14:40:44.842Z,98825.56
2022-09-14T14:42:48.328Z,98820.78
2022-09-14T14:44:50.815Z,98827.47
2022-09-14T14:46:52.961Z,98819.72
2022-09-14T14:48:55.117Z,98818.66
2022-09-14T14:50:57.212Z,98822.59
2022-09-14T14:53:00.672Z,98813.50
2022-09-14T14:55:02.795Z,98810.94
2022-09-14T14:57:05.377Z,98808.38
2022-09-14T14:59:19.473Z,98810.41
2022-09-14T15:01:22.929Z,98800.81
2022-09-14T15:03:25.106Z,98790.69
2022-09-14T15:05:27.775Z,98798.41
2022-09-14T15:07:29.931Z,98796.53
2022-09-14T15:09:32.795Z,98794.63
2022-09-14T15:11:38.509Z,98798.72
2022-09-14T15:13:40.551Z,98799.28
2022-09-14T15:15:43.301Z,98794.97
2022-09-14T15:17:45.566Z,98806.09
2022-09-14T15:19:47.605Z,98796.13
2022-09-14T15:21:53.181Z,98791.38
2022-09-14T15:24:01.891Z,98787.91
2022-09-14T15:26:05.099Z,98789.78
2022-09-14T15:28:07.341Z,98785.28
2022-09-14T15:30:11.529Z,98789.41
2022-09-14T15:32:13.681Z,98784.41
2022-09-14T15:34:15.919Z,98786.13
2022-09-14T15:36:50.793Z,98779.75
2022-09-14T15:38:53.053Z,98768.47
2022-09-14T15:40:55.496Z,98765.22
2022-09-14T15:43:00.908Z,98769.88
2022-09-14T15:45:06.439Z,98767.13
2022-09-14T15:47:10.314Z,98765.06
2022-09-14T15:49:14.771Z,98765.63
2022-09-14T15:51:17.559Z,98757.53
2022-09-14T15:53:20.167Z,98757.38
2022-09-14T15:55:22.740Z,98760.50
2022-09-14T15:57:24.838Z,98754.16
2022-09-14T15:59:28.785Z,98752.75
2022-09-14T16:01:31.920Z,98754.16
2022-09-14T16:03:34.156Z,98753.78
2022-09-14T16:05:39.779Z,98751.34
2022-09-14T16:07:41.750Z,98752.75
2022-09-14T16:09:43.852Z,98747.09
2022-09-14T16:11:45.953Z,98746.41
2022-09-14T16:13:50.557Z,98736.28
2022-09-14T16:16:02.000Z,98730.41
2022-09-14T16:18:04.447Z,98732.78
2022-09-14T16:20:10.009Z,98726.50
2022-09-14T16:22:12.279Z,98728.50
2022-09-14T16:24:18.218Z,98721.81
2022-09-14T16:26:26.272Z,98728.69
2022-09-14T16:28:28.352Z,98719.75
2022-09-14T16:30:30.314Z,98721.81
2022-09-14T16:32:32.485Z,98726.09
2022-09-14T16:34:34.571Z,98727.66
2022-09-14T16:36:39.476Z,98716.16
2022-09-14T16:38:42.646Z,98720.25
2022-09-14T16:40:45.910Z,98714.09
2022-09-14T16:42:48.396Z,98705.19
2022-09-14T16:44:50.821Z,98703.63
2022-09-14T16:46:54.620Z,98703.25
2022-09-14T16:48:58.908Z,98705.16
2022-09-14T16:51:04.184Z,98702.91
2022-09-14T16:53:06.286Z,98701.00
2022-09-14T16:55:08.874Z,98703.06
2022-09-14T16:57:11.336Z,98695.00
2022-09-14T16:59:14.233Z,98701.50
2022-09-14T17:01:29.511Z,98701.16
2022-09-14T17:03:32.000Z,98694.97
2022-09-14T17:05:34.677Z,98696.16
2022-09-14T17:07:37.499Z,98697.88
2022-09-14T17:09:41.407Z,98696.34
2022-09-14T17:11:43.902Z,98695.78
2022-09-14T17:13:46.653Z,98687.72
2022-09-14T17:15:48.577Z,98689.28
2022-09-14T17:17:51.173Z,98696.34
2022-09-14T17:19:56.228Z,98687.56
2022-09-14T17:22:01.140Z,98686.19
2022-09-14T17:24:05.080Z,98687.88
2022-09-14T17:26:10.297Z,98693.03
2022-09-14T17:28:12.661Z,98696.81
2022-09-14T17:30:14.810Z,98684.13
2022-09-14T17:32:17.014Z,98682.94
2022-09-14T17:34:19.014Z,98680.03
2022-09-14T17:36:21.924Z,98679.16
2022-09-14T17:38:27.567Z,98688.06
2022-09-14T17:40:32.835Z,98668.34
2022-09-14T17:42:35.053Z,98671.63
2022-09-14T17:44:37.194Z,98663.03
2022-09-14T17:46:48.097Z,98654.31
2022-09-14T17:48:53.578Z,98664.75
2022-09-14T17:50:55.667Z,98661.16
2022-09-14T17:52:58.149Z,98662.84
2022-09-14T17:55:00.729Z,98660.66
2022-09-14T17:57:02.907Z,98660.66
2022-09-14T17:59:08.005Z,98654.69
2022-09-14T18:01:19.066Z,98666.88
2022-09-14T18:03:21.540Z,98668.22
2022-09-14T18:05:27.208Z,98668.09
2022-09-14T18:07:30.949Z,98667.94
2022-09-14T18:09:33.442Z,98671.34
2022-09-14T18:11:36.483Z,98672.88
2022-09-14T18:13:42.806Z,98662.94
2022-09-14T18:15:45.040Z,98673.78
2022-09-14T18:17:47.577Z,98662.94
2022-09-14T18:19:54.451Z,98676.81
2022-09-14T18:21:59.205Z,98679.75
2022-09-14T18:24:02.268Z,98673.56
2022-09-14T18:26:06.955Z,98687.44
2022-09-14T18:28:09.745Z,98683.84
2022-09-14T18:30:12.231Z,98688.81
2022-09-14T18:32:14.469Z,98689.81
2022-09-14T18:34:16.914Z,98684.69
2022-09-14T18:36:20.360Z,98693.25
2022-09-14T18:38:23.114Z,98687.91
2022-09-14T18:40:25.381Z,98688.25
2022-09-14T18:42:27.536Z,98693.75
2022-09-14T18:44:29.670Z,98695.78
2022-09-14T18:46:32.432Z,98694.78
2022-09-14T18:48:38.920Z,98693.56
2022-09-14T18:50:42.574Z,98700.59
2022-09-14T18:52:44.873Z,98689.63
2022-09-14T18:54:47.171Z,98685.31
2022-09-14T18:56:50.181Z,98687.03
2022-09-14T18:58:55.188Z,98683.25
2022-09-14T19:00:57.540Z,98679.50
2022-09-14T19:03:00.455Z,98679.66
2022-09-14T19:05:02.910Z,98668.88
2022-09-14T19:07:05.883Z,98666.28
2022-09-14T19:09:08.147Z,98669.88
2022-09-14T19:11:16.975Z,98660.78
2022-09-14T19:13:19.170Z,98660.63
2022-09-14T19:15:24.185Z,98649.47
2022-09-14T19:17:26.702Z,98650.34
2022-09-14T19:19:28.942Z,98651.38
2022-09-14T19:21:31.778Z,98657.72
2022-09-14T19:23:33.968Z,98661.66
2022-09-14T19:25:37.889Z,98653.91
2022-09-14T19:27:40.212Z,98658.88
2022-09-14T19:29:42.711Z,98653.38
2022-09-14T19:31:44.850Z,98659.38
2022-09-14T19:33:47.199Z,98654.72
2022-09-14T19:35:49.186Z,98653.88
2022-09-14T19:37:51.102Z,98656.63
2022-09-14T19:39:53.515Z,98656.97
2022-09-14T19:41:55.593Z,98654.22
2022-09-14T19:43:58.366Z,98657.28
2022-09-14T19:46:14.928Z,98664.97
2022-09-14T19:48:17.084Z,98665.84
2022-09-14T19:50:19.043Z,98666.16
2022-09-14T19:52:21.231Z,98657.25
2022-09-14T19:54:23.261Z,98653.09
2022-09-14T19:56:28.034Z,98658.56
2022-09-14T19:58:30.144Z,98666.78
2022-09-14T20:00:33.749Z,98661.47
2022-09-14T20:02:36.271Z,98655.97
2022-09-14T20:04:38.653Z,98657.88
2022-09-14T20:06:44.115Z,98657.00
2022-09-14T20:08:47.433Z,98668.13
2022-09-14T20:10:49.688Z,98665.38
2022-09-14T20:12:52.163Z,98666.28
2022-09-14T20:14:54.246Z,98676.91
2022-09-14T20:16:58.808Z,98671.56
2022-09-14T20:19:06.084Z,98669.00
2022-09-14T20:21:10.064Z,98671.56
2022-09-14T20:23:12.511Z,98677.38
2022-09-14T20:25:14.449Z,98681.16
2022-09-14T20:27:16.658Z,98666.06
2022-09-14T20:29:20.134Z,98678.19
2022-09-14T20:31:22.739Z,98674.47
2022-09-14T20:33:25.097Z,98672.72
2022-09-14T20:35:27.317Z,98673.44
2022-09-14T20:37:29.655Z,98673.44
2022-09-14T20:39:31.817Z,98667.94
2022-09-14T20:41:35.509Z,98670.34
2022-09-14T20:43:39.547Z,98673.59
2022-09-14T20:45:41.547Z,98683.72
2022-09-14T20:47:44.509Z,98678.41
2022-09-14T20:49:46.627Z,98677.53
2022-09-14T20:51:48.906Z,98681.31
2022-09-14T20:53:51.417Z,98678.91
2022-09-14T20:55:54.057Z,98675.31
2022-09-14T20:57:56.220Z,98676.31
2022-09-14T20:59:58.393Z,98670.31
2022-09-14T21:02:03.584Z,98680.94
2022-09-14T21:04:10.501Z,98678.06
2022-09-14T21:06:15.943Z,98684.53
2022-09-14T21:08:20.420Z,98682.97
2022-09-14T21:10:28.574Z,98674.38
2022-09-14T21:12:31.731Z,98681.75
2022-09-14T21:14:33.969Z,98691.34
2022-09-14T21:16:38.345Z,98688.75
2022-09-14T21:18:41.178Z,98691.09
2022-09-14T21:20:43.586Z,98698.09
2022-09-14T21:22:45.810Z,98701.00
2022-09-14T21:24:50.742Z,98700.13
2022-09-14T21:26:53.139Z,98693.09
2022-09-14T21:28:57.607Z,98694.13
2022-09-14T21:31:09.550Z,98698.66
2022-09-14T21:33:11.596Z,98703.81
2022-09-14T21:35:14.137Z,98699.22
2022-09-14T21:37:16.051Z,98708.44
2022-09-14T21:39:23.572Z,98717.13
2022-09-14T21:41:27.921Z,98707.75
2022-09-14T21:43:30.335Z,98704.00
2022-09-14T21:45:32.437Z,98716.13
2022-09-14T21:47:34.613Z,98715.56
2022-09-14T21:49:39.610Z,98703.94
2022-09-14T21:51:42.457Z,98718.09
2022-09-14T21:53:49.996Z,98719.75
2022-09-14T21:55:51.962Z,98717.53
2022-09-14T21:57:54.577Z,98711.53
2022-09-14T21:59:56.719Z,98708.94
2022-09-14T22:01:59.043Z,98697.97
2022-09-14T22:04:02.441Z,98691.66
2022-09-14T22:06:07.790Z,98701.75
2022-09-14T22:08:10.434Z,98701.75
2022-09-14T22:10:12.895Z,98710.09
2022-09-14T22:12:18.105Z,98693.53
2022-09-14T22:14:27.264Z,98704.06
2022-09-14T22:16:33.885Z,98697.13
2022-09-14T22:18:38.116Z,98704.03
2022-09-14T22:20:40.458Z,98698.53
2022-09-14T22:22:44.557Z,98692.03
2022-09-14T22:24:46.820Z,98693.59
2022-09-14T22:26:50.569Z,98695.16
2022-09-14T22:28:54.257Z,98694.69
2022-09-14T22:30:56.654Z,98704.00
2022-09-14T22:32:58.920Z,98694.13
2022-09-14T22:35:01.503Z,98676.97
2022-09-14T22:37:03.686Z,98678.16
2022-09-14T22:39:28.355Z,98678.50
2022-09-14T22:41:30.452Z,98674.56
2022-09-14T22:43:34.882Z,98673.22
2022-09-14T22:45:37.109Z,98680.09
2022-09-14T22:47:39.419Z,98677.03
2022-09-14T22:49:41.603Z,98680.81
2022-09-14T22:51:43.835Z,98675.78
2022-09-14T22:53:46.996Z,98677.69
2022-09-14T22:55:50.006Z,98674.28
2022-09-14T22:57:52.075Z,98683.53
2022-09-14T22:59:54.271Z,98684.03
2022-09-14T23:01:56.530Z,98685.72
2022-09-14T23:04:02.109Z,98677.50
2022-09-14T23:06:05.169Z,98675.78
2022-09-14T23:08:08.381Z,98664.47
2022-09-14T23:10:10.432Z,98667.34
2022-09-14T23:12:12.388Z,98662.19
2022-09-14T23:14:16.653Z,98673.16
2022-09-14T23:16:21.870Z,98673.84
2022-09-14T23:18:32.313Z,98668.53
2022-09-14T23:20:42.474Z,98665.59
2022-09-14T23:22:47.492Z,98668.31
2022-09-14T23:24:49.588Z,98660.41
2022-09-14T23:26:51.789Z,98654.78
2022-09-14T23:28:56.326Z,98656.47
2022-09-14T23:30:59.941Z,98648.97
2022-09-14T23:33:02.573Z,98644.47
2022-09-14T23:35:07.898Z,98647.22
2022-09-14T23:37:10.214Z,98657.13
2022-09-14T23:39:12.535Z,98651.66
2022-09-14T23:41:16.176Z,98655.56
2022-09-14T23:43:19.317Z,98657.59
2022-09-14T23:45:21.475Z,98653.31
2022-09-14T23:47:23.771Z,98658.00
2022-09-14T23:49:26.173Z,98651.34
2022-09-14T23:51:28.401Z,98655.81
2022-09-14T23:53:30.835Z,98652.38
2022-09-14T23:55:33.413Z,98651.28
2022-09-14T23:57:36.729Z,98648.78
2022-09-14T23:59:38.766Z,98652.69
